sensor_id;sensor_type;location;lat;lon;timestamp;P1;durP1;ratioP1;P2;durP2;ratioP2
74309;SDS011;62722;51.142;17.052;2023-06-14T00:01:59;7.15;;;4.00;;
74309;SDS011;62722;51.142;17.052;2023-06-14T00:04:26;6.38;;;4.10;;
74309;SDS011;62722;51.142;17.052;2023-06-14T00:06:55;7.10;;;4.05;;
74309;SDS011;62722;51.142;17.052;2023-06-14T00:09:23;6.60;;;4.20;;
74309;SDS011;62722;51.142;17.052;2023-06-14T00:11:52;4.68;;;3.38;;
74309;SDS011;62722;51.142;17.052;2023-06-14T00:14:20;7.45;;;3.85;;
74309;SDS011;62722;51.142;17.052;2023-06-14T00:16:47;8.30;;;4.43;;
74309;SDS011;62722;51.142;17.052;2023-06-14T00:19:15;6.10;;;3.88;;
74309;SDS011;62722;51.142;17.052;2023-06-14T00:21:42;5.50;;;3.60;;
74309;SDS011;62722;51.142;17.052;2023-06-14T00:24:10;6.90;;;4.40;;
74309;SDS011;62722;51.142;17.052;2023-06-14T00:26:37;6.20;;;4.13;;
74309;SDS011;62722;51.142;17.052;2023-06-14T00:29:06;6.18;;;4.03;;
74309;SDS011;62722;51.142;17.052;2023-06-14T00:31:34;5.72;;;3.83;;
74309;SDS011;62722;51.142;17.052;2023-06-14T00:34:01;6.38;;;3.88;;
74309;SDS011;62722;51.142;17.052;2023-06-14T00:36:28;5.65;;;4.22;;
74309;SDS011;62722;51.142;17.052;2023-06-14T00:38:56;5.72;;;4.00;;
74309;SDS011;62722;51.142;17.052;2023-06-14T00:41:23;7.03;;;3.70;;
74309;SDS011;62722;51.142;17.052;2023-06-14T00:43:51;5.65;;;3.90;;
74309;SDS011;62722;51.142;17.052;2023-06-14T00:46:23;6.75;;;4.30;;
74309;SDS011;62722;51.142;17.052;2023-06-14T00:48:51;6.70;;;4.80;;
74309;SDS011;62722;51.142;17.052;2023-06-14T00:51:19;8.20;;;4.60;;
74309;SDS011;62722;51.142;17.052;2023-06-14T00:53:46;8.40;;;4.57;;
74309;SDS011;62722;51.142;17.052;2023-06-14T00:56:14;7.47;;;4.47;;
74309;SDS011;62722;51.142;17.052;2023-06-14T00:58:42;6.05;;;4.13;;
74309;SDS011;62722;51.142;17.052;2023-06-14T01:01:10;6.57;;;4.32;;
74309;SDS011;62722;51.142;17.052;2023-06-14T01:03:39;7.07;;;4.80;;
74309;SDS011;62722;51.142;17.052;2023-06-14T01:06:09;6.65;;;4.30;;
74309;SDS011;62722;51.142;17.052;2023-06-14T01:08:57;6.93;;;4.50;;
74309;SDS011;62722;51.142;17.052;2023-06-14T01:11:37;7.07;;;4.93;;
74309;SDS011;62722;51.142;17.052;2023-06-14T01:14:11;6.60;;;4.82;;
74309;SDS011;62722;51.142;17.052;2023-06-14T01:16:42;6.88;;;4.22;;
74309;SDS011;62722;51.142;17.052;2023-06-14T01:19:12;6.63;;;4.38;;
74309;SDS011;62722;51.142;17.052;2023-06-14T01:21:41;5.45;;;4.03;;
74309;SDS011;62722;51.142;17.052;2023-06-14T01:24:09;7.07;;;4.25;;
74309;SDS011;62722;51.142;17.052;2023-06-14T01:26:37;7.95;;;4.57;;
74309;SDS011;62722;51.142;17.052;2023-06-14T01:29:11;8.32;;;4.57;;
74309;SDS011;62722;51.142;17.052;2023-06-14T01:31:43;6.90;;;4.10;;
74309;SDS011;62722;51.142;17.052;2023-06-14T01:34:11;7.10;;;4.43;;
74309;SDS011;62722;51.142;17.052;2023-06-14T01:36:38;6.47;;;4.60;;
74309;SDS011;62722;51.142;17.052;2023-06-14T01:39:08;7.40;;;4.43;;
74309;SDS011;62722;51.142;17.052;2023-06-14T01:41:39;6.70;;;4.28;;
74309;SDS011;62722;51.142;17.052;2023-06-14T01:44:07;6.72;;;4.22;;
74309;SDS011;62722;51.142;17.052;2023-06-14T01:46:35;7.65;;;4.15;;
74309;SDS011;62722;51.142;17.052;2023-06-14T01:49:03;5.85;;;4.60;;
74309;SDS011;62722;51.142;17.052;2023-06-14T01:51:31;6.60;;;4.20;;
74309;SDS011;62722;51.142;17.052;2023-06-14T01:53:58;7.28;;;4.05;;
74309;SDS011;62722;51.142;17.052;2023-06-14T01:56:27;5.95;;;3.75;;
74309;SDS011;62722;51.142;17.052;2023-06-14T01:58:55;6.93;;;4.30;;
74309;SDS011;62722;51.142;17.052;2023-06-14T02:01:23;7.35;;;4.05;;
74309;SDS011;62722;51.142;17.052;2023-06-14T02:03:50;6.38;;;4.18;;
74309;SDS011;62722;51.142;17.052;2023-06-14T02:06:19;6.82;;;4.70;;
74309;SDS011;62722;51.142;17.052;2023-06-14T02:08:46;5.70;;;4.05;;
74309;SDS011;62722;51.142;17.052;2023-06-14T02:11:14;6.70;;;4.38;;
74309;SDS011;62722;51.142;17.052;2023-06-14T02:13:42;6.60;;;4.40;;
74309;SDS011;62722;51.142;17.052;2023-06-14T02:16:10;6.28;;;3.83;;
74309;SDS011;62722;51.142;17.052;2023-06-14T02:18:38;7.72;;;4.45;;
74309;SDS011;62722;51.142;17.052;2023-06-14T02:21:05;7.78;;;4.20;;
74309;SDS011;62722;51.142;17.052;2023-06-14T02:23:33;6.30;;;4.35;;
74309;SDS011;62722;51.142;17.052;2023-06-14T02:26:00;6.63;;;4.50;;
74309;SDS011;62722;51.142;17.052;2023-06-14T02:28:28;6.43;;;4.07;;
74309;SDS011;62722;51.142;17.052;2023-06-14T02:30:57;6.00;;;4.15;;
74309;SDS011;62722;51.142;17.052;2023-06-14T02:33:24;6.30;;;4.15;;
74309;SDS011;62722;51.142;17.052;2023-06-14T02:35:52;5.93;;;4.10;;
74309;SDS011;62722;51.142;17.052;2023-06-14T02:38:19;6.82;;;4.68;;
74309;SDS011;62722;51.142;17.052;2023-06-14T02:40:47;6.38;;;4.10;;
74309;SDS011;62722;51.142;17.052;2023-06-14T02:43:14;7.18;;;4.80;;
74309;SDS011;62722;51.142;17.052;2023-06-14T02:45:43;8.15;;;4.35;;
74309;SDS011;62722;51.142;17.052;2023-06-14T02:48:12;7.18;;;4.72;;
74309;SDS011;62722;51.142;17.052;2023-06-14T02:50:40;6.65;;;4.35;;
74309;SDS011;62722;51.142;17.052;2023-06-14T02:53:07;6.93;;;4.65;;
74309;SDS011;62722;51.142;17.052;2023-06-14T02:55:34;6.90;;;4.65;;
74309;SDS011;62722;51.142;17.052;2023-06-14T02:58:05;5.53;;;3.83;;
74309;SDS011;62722;51.142;17.052;2023-06-14T03:00:32;6.43;;;4.25;;
74309;SDS011;62722;51.142;17.052;2023-06-14T03:03:00;6.63;;;4.07;;
74309;SDS011;62722;51.142;17.052;2023-06-14T03:05:31;6.88;;;4.60;;
74309;SDS011;62722;51.142;17.052;2023-06-14T03:07:59;8.80;;;4.68;;
74309;SDS011;62722;51.142;17.052;2023-06-14T03:10:28;8.05;;;4.50;;
74309;SDS011;62722;51.142;17.052;2023-06-14T03:12:55;6.68;;;4.38;;
74309;SDS011;62722;51.142;17.052;2023-06-14T03:15:23;8.05;;;5.10;;
74309;SDS011;62722;51.142;17.052;2023-06-14T03:17:51;8.63;;;5.05;;
74309;SDS011;62722;51.142;17.052;2023-06-14T03:20:19;7.85;;;4.50;;
74309;SDS011;62722;51.142;17.052;2023-06-14T03:22:48;8.60;;;5.22;;
74309;SDS011;62722;51.142;17.052;2023-06-14T03:25:16;7.63;;;4.70;;
74309;SDS011;62722;51.142;17.052;2023-06-14T03:27:44;11.75;;;5.32;;
74309;SDS011;62722;51.142;17.052;2023-06-14T03:30:11;9.75;;;5.00;;
74309;SDS011;62722;51.142;17.052;2023-06-14T03:32:39;7.85;;;4.90;;
74309;SDS011;62722;51.142;17.052;2023-06-14T03:35:07;7.53;;;4.78;;
74309;SDS011;62722;51.142;17.052;2023-06-14T03:37:35;8.32;;;5.10;;
74309;SDS011;62722;51.142;17.052;2023-06-14T03:40:05;7.85;;;4.53;;
74309;SDS011;62722;51.142;17.052;2023-06-14T03:42:32;7.45;;;4.95;;
74309;SDS011;62722;51.142;17.052;2023-06-14T03:45:00;7.72;;;4.47;;
74309;SDS011;62722;51.142;17.052;2023-06-14T03:47:27;8.80;;;4.45;;
74309;SDS011;62722;51.142;17.052;2023-06-14T03:49:55;9.02;;;5.20;;
74309;SDS011;62722;51.142;17.052;2023-06-14T03:52:22;9.45;;;5.40;;
74309;SDS011;62722;51.142;17.052;2023-06-14T03:54:50;9.13;;;4.65;;
74309;SDS011;62722;51.142;17.052;2023-06-14T03:57:22;6.78;;;5.00;;
74309;SDS011;62722;51.142;17.052;2023-06-14T03:59:50;7.93;;;4.90;;
74309;SDS011;62722;51.142;17.052;2023-06-14T04:02:17;7.65;;;5.03;;
74309;SDS011;62722;51.142;17.052;2023-06-14T04:04:45;7.85;;;4.80;;
74309;SDS011;62722;51.142;17.052;2023-06-14T04:07:14;7.68;;;4.60;;
74309;SDS011;62722;51.142;17.052;2023-06-14T04:12:12;7.30;;;4.60;;
74309;SDS011;62722;51.142;17.052;2023-06-14T04:14:41;7.38;;;4.75;;
74309;SDS011;62722;51.142;17.052;2023-06-14T04:17:08;8.00;;;4.90;;
74309;SDS011;62722;51.142;17.052;2023-06-14T04:19:36;6.85;;;4.50;;
74309;SDS011;62722;51.142;17.052;2023-06-14T04:22:03;8.98;;;5.30;;
74309;SDS011;62722;51.142;17.052;2023-06-14T04:24:31;7.47;;;4.85;;
74309;SDS011;62722;51.142;17.052;2023-06-14T04:27:00;7.70;;;5.00;;
74309;SDS011;62722;51.142;17.052;2023-06-14T04:29:28;6.82;;;4.68;;
74309;SDS011;62722;51.142;17.052;2023-06-14T04:31:58;7.20;;;5.07;;
74309;SDS011;62722;51.142;17.052;2023-06-14T04:34:27;7.53;;;4.95;;
74309;SDS011;62722;51.142;17.052;2023-06-14T04:36:59;9.18;;;5.38;;
74309;SDS011;62722;51.142;17.052;2023-06-14T04:39:27;7.85;;;4.75;;
74309;SDS011;62722;51.142;17.052;2023-06-14T04:41:54;8.57;;;5.40;;
74309;SDS011;62722;51.142;17.052;2023-06-14T04:44:22;9.20;;;4.95;;
74309;SDS011;62722;51.142;17.052;2023-06-14T04:46:55;10.02;;;5.40;;
74309;SDS011;62722;51.142;17.052;2023-06-14T04:49:25;7.00;;;4.82;;
74309;SDS011;62722;51.142;17.052;2023-06-14T04:51:52;9.05;;;5.82;;
74309;SDS011;62722;51.142;17.052;2023-06-14T04:54:23;10.88;;;5.70;;
74309;SDS011;62722;51.142;17.052;2023-06-14T04:56:51;9.20;;;5.80;;
74309;SDS011;62722;51.142;17.052;2023-06-14T04:59:20;12.10;;;6.38;;
74309;SDS011;62722;51.142;17.052;2023-06-14T05:01:48;10.95;;;5.85;;
74309;SDS011;62722;51.142;17.052;2023-06-14T05:04:18;9.30;;;6.15;;
74309;SDS011;62722;51.142;17.052;2023-06-14T05:06:46;10.32;;;6.55;;
74309;SDS011;62722;51.142;17.052;2023-06-14T05:09:14;13.20;;;7.15;;
74309;SDS011;62722;51.142;17.052;2023-06-14T05:11:42;9.52;;;6.60;;
74309;SDS011;62722;51.142;17.052;2023-06-14T05:14:10;10.38;;;6.47;;
74309;SDS011;62722;51.142;17.052;2023-06-14T05:16:37;12.18;;;6.75;;
74309;SDS011;62722;51.142;17.052;2023-06-14T05:19:06;11.13;;;6.90;;
74309;SDS011;62722;51.142;17.052;2023-06-14T05:21:35;12.77;;;6.68;;
74309;SDS011;62722;51.142;17.052;2023-06-14T05:24:06;12.05;;;7.00;;
74309;SDS011;62722;51.142;17.052;2023-06-14T05:26:34;11.40;;;7.00;;
74309;SDS011;62722;51.142;17.052;2023-06-14T05:29:02;11.43;;;6.88;;
74309;SDS011;62722;51.142;17.052;2023-06-14T05:31:29;12.00;;;6.90;;
74309;SDS011;62722;51.142;17.052;2023-06-14T05:33:57;9.43;;;6.53;;
74309;SDS011;62722;51.142;17.052;2023-06-14T05:36:24;11.13;;;6.30;;
74309;SDS011;62722;51.142;17.052;2023-06-14T05:39:02;10.40;;;6.22;;
74309;SDS011;62722;51.142;17.052;2023-06-14T05:41:31;10.75;;;6.43;;
74309;SDS011;62722;51.142;17.052;2023-06-14T05:43:58;13.13;;;7.18;;
74309;SDS011;62722;51.142;17.052;2023-06-14T05:46:26;13.43;;;7.00;;
74309;SDS011;62722;51.142;17.052;2023-06-14T05:48:54;14.73;;;7.30;;
74309;SDS011;62722;51.142;17.052;2023-06-14T05:51:22;11.93;;;6.70;;
74309;SDS011;62722;51.142;17.052;2023-06-14T05:53:50;12.70;;;6.60;;
74309;SDS011;62722;51.142;17.052;2023-06-14T05:56:19;12.77;;;7.10;;
74309;SDS011;62722;51.142;17.052;2023-06-14T05:58:47;10.15;;;6.20;;
74309;SDS011;62722;51.142;17.052;2023-06-14T06:01:14;11.35;;;7.47;;
74309;SDS011;62722;51.142;17.052;2023-06-14T06:03:42;13.15;;;6.63;;
74309;SDS011;62722;51.142;17.052;2023-06-14T06:06:12;12.75;;;7.85;;
74309;SDS011;62722;51.142;17.052;2023-06-14T06:08:39;13.05;;;7.43;;
74309;SDS011;62722;51.142;17.052;2023-06-14T06:11:08;13.63;;;8.05;;
74309;SDS011;62722;51.142;17.052;2023-06-14T06:13:37;16.13;;;8.15;;
74309;SDS011;62722;51.142;17.052;2023-06-14T06:16:06;15.43;;;8.23;;
74309;SDS011;62722;51.142;17.052;2023-06-14T06:18:33;13.73;;;8.05;;
74309;SDS011;62722;51.142;17.052;2023-06-14T06:21:03;12.98;;;7.45;;
74309;SDS011;62722;51.142;17.052;2023-06-14T06:23:31;14.07;;;8.23;;
74309;SDS011;62722;51.142;17.052;2023-06-14T06:25:59;13.55;;;8.55;;
74309;SDS011;62722;51.142;17.052;2023-06-14T06:28:27;14.43;;;8.60;;
74309;SDS011;62722;51.142;17.052;2023-06-14T06:30:55;12.85;;;8.27;;
74309;SDS011;62722;51.142;17.052;2023-06-14T06:33:23;15.23;;;9.23;;
74309;SDS011;62722;51.142;17.052;2023-06-14T06:35:51;16.80;;;8.85;;
74309;SDS011;62722;51.142;17.052;2023-06-14T06:38:19;14.93;;;8.88;;
74309;SDS011;62722;51.142;17.052;2023-06-14T06:40:49;14.55;;;8.50;;
74309;SDS011;62722;51.142;17.052;2023-06-14T06:43:16;14.70;;;8.98;;
74309;SDS011;62722;51.142;17.052;2023-06-14T06:45:44;17.05;;;9.98;;
74309;SDS011;62722;51.142;17.052;2023-06-14T06:48:13;17.52;;;9.18;;
74309;SDS011;62722;51.142;17.052;2023-06-14T06:50:41;14.10;;;8.73;;
74309;SDS011;62722;51.142;17.052;2023-06-14T06:53:09;13.38;;;8.85;;
74309;SDS011;62722;51.142;17.052;2023-06-14T06:55:36;16.70;;;8.73;;
74309;SDS011;62722;51.142;17.052;2023-06-14T06:58:04;18.15;;;9.77;;
74309;SDS011;62722;51.142;17.052;2023-06-14T07:00:32;21.17;;;10.15;;
74309;SDS011;62722;51.142;17.052;2023-06-14T07:02:59;15.95;;;9.57;;
74309;SDS011;62722;51.142;17.052;2023-06-14T07:05:28;18.95;;;9.93;;
74309;SDS011;62722;51.142;17.052;2023-06-14T07:07:58;17.48;;;9.48;;
74309;SDS011;62722;51.142;17.052;2023-06-14T07:10:25;16.10;;;9.45;;
74309;SDS011;62722;51.142;17.052;2023-06-14T07:12:53;16.90;;;9.35;;
74309;SDS011;62722;51.142;17.052;2023-06-14T07:15:20;16.00;;;9.32;;
74309;SDS011;62722;51.142;17.052;2023-06-14T07:17:48;18.23;;;9.90;;
74309;SDS011;62722;51.142;17.052;2023-06-14T07:20:16;17.25;;;9.48;;
74309;SDS011;62722;51.142;17.052;2023-06-14T07:22:45;18.27;;;9.73;;
74309;SDS011;62722;51.142;17.052;2023-06-14T07:25:13;17.67;;;9.43;;
74309;SDS011;62722;51.142;17.052;2023-06-14T07:27:40;14.38;;;8.50;;
74309;SDS011;62722;51.142;17.052;2023-06-14T07:30:08;14.85;;;7.70;;
74309;SDS011;62722;51.142;17.052;2023-06-14T07:32:37;13.45;;;8.38;;
74309;SDS011;62722;51.142;17.052;2023-06-14T07:35:05;16.80;;;9.98;;
74309;SDS011;62722;51.142;17.052;2023-06-14T07:37:33;17.65;;;9.82;;
74309;SDS011;62722;51.142;17.052;2023-06-14T07:40:02;19.15;;;9.20;;
74309;SDS011;62722;51.142;17.052;2023-06-14T07:42:33;18.00;;;9.63;;
74309;SDS011;62722;51.142;17.052;2023-06-14T07:45:01;14.38;;;8.55;;
74309;SDS011;62722;51.142;17.052;2023-06-14T07:47:29;14.13;;;8.52;;
74309;SDS011;62722;51.142;17.052;2023-06-14T07:49:56;15.18;;;7.90;;
74309;SDS011;62722;51.142;17.052;2023-06-14T07:52:24;14.50;;;8.60;;
74309;SDS011;62722;51.142;17.052;2023-06-14T07:54:51;14.35;;;8.43;;
74309;SDS011;62722;51.142;17.052;2023-06-14T07:57:20;13.07;;;7.38;;
74309;SDS011;62722;51.142;17.052;2023-06-14T07:59:47;12.35;;;7.32;;
74309;SDS011;62722;51.142;17.052;2023-06-14T08:02:15;11.40;;;7.13;;
74309;SDS011;62722;51.142;17.052;2023-06-14T08:04:43;14.35;;;8.00;;
74309;SDS011;62722;51.142;17.052;2023-06-14T08:07:11;15.07;;;8.13;;
74309;SDS011;62722;51.142;17.052;2023-06-14T08:09:38;14.02;;;8.55;;
74309;SDS011;62722;51.142;17.052;2023-06-14T08:12:06;12.48;;;7.00;;
74309;SDS011;62722;51.142;17.052;2023-06-14T08:14:36;15.35;;;7.88;;
74309;SDS011;62722;51.142;17.052;2023-06-14T08:17:04;12.55;;;8.57;;
74309;SDS011;62722;51.142;17.052;2023-06-14T08:19:32;13.50;;;8.25;;
74309;SDS011;62722;51.142;17.052;2023-06-14T08:22:03;13.90;;;7.82;;
74309;SDS011;62722;51.142;17.052;2023-06-14T08:24:31;13.70;;;7.90;;
74309;SDS011;62722;51.142;17.052;2023-06-14T08:26:58;13.88;;;8.65;;
74309;SDS011;62722;51.142;17.052;2023-06-14T08:29:26;14.10;;;7.43;;
74309;SDS011;62722;51.142;17.052;2023-06-14T08:32:00;11.00;;;6.85;;
74309;SDS011;62722;51.142;17.052;2023-06-14T08:34:29;10.27;;;6.47;;
74309;SDS011;62722;51.142;17.052;2023-06-14T08:36:56;11.68;;;6.75;;
74309;SDS011;62722;51.142;17.052;2023-06-14T08:39:24;12.75;;;7.22;;
74309;SDS011;62722;51.142;17.052;2023-06-14T08:41:51;13.73;;;8.02;;
74309;SDS011;62722;51.142;17.052;2023-06-14T08:44:19;12.27;;;7.70;;
74309;SDS011;62722;51.142;17.052;2023-06-14T08:46:47;13.80;;;8.18;;
74309;SDS011;62722;51.142;17.052;2023-06-14T08:49:16;12.95;;;7.70;;
74309;SDS011;62722;51.142;17.052;2023-06-14T08:51:44;11.65;;;7.20;;
74309;SDS011;62722;51.142;17.052;2023-06-14T08:54:13;12.75;;;7.35;;
74309;SDS011;62722;51.142;17.052;2023-06-14T08:56:42;11.13;;;6.85;;
74309;SDS011;62722;51.142;17.052;2023-06-14T08:59:10;11.23;;;7.32;;
74309;SDS011;62722;51.142;17.052;2023-06-14T09:01:39;12.35;;;7.10;;
74309;SDS011;62722;51.142;17.052;2023-06-14T09:04:07;11.32;;;7.00;;
74309;SDS011;62722;51.142;17.052;2023-06-14T09:06:36;10.73;;;7.18;;
74309;SDS011;62722;51.142;17.052;2023-06-14T09:09:03;11.45;;;7.13;;
74309;SDS011;62722;51.142;17.052;2023-06-14T09:11:31;12.75;;;7.43;;
74309;SDS011;62722;51.142;17.052;2023-06-14T09:13:58;11.15;;;6.63;;
74309;SDS011;62722;51.142;17.052;2023-06-14T09:16:26;10.10;;;5.63;;
74309;SDS011;62722;51.142;17.052;2023-06-14T09:18:53;9.70;;;5.90;;
74309;SDS011;62722;51.142;17.052;2023-06-14T09:21:21;9.38;;;5.85;;
74309;SDS011;62722;51.142;17.052;2023-06-14T09:23:50;10.57;;;6.72;;
74309;SDS011;62722;51.142;17.052;2023-06-14T09:26:18;12.07;;;6.60;;
74309;SDS011;62722;51.142;17.052;2023-06-14T09:28:46;9.85;;;5.68;;
74309;SDS011;62722;51.142;17.052;2023-06-14T09:31:15;8.15;;;5.43;;
74309;SDS011;62722;51.142;17.052;2023-06-14T09:33:43;9.18;;;5.40;;
74309;SDS011;62722;51.142;17.052;2023-06-14T09:36:14;10.95;;;5.43;;
74309;SDS011;62722;51.142;17.052;2023-06-14T09:38:52;7.55;;;5.25;;
74309;SDS011;62722;51.142;17.052;2023-06-14T09:41:20;7.95;;;4.78;;
74309;SDS011;62722;51.142;17.052;2023-06-14T09:43:57;8.02;;;5.68;;
74309;SDS011;62722;51.142;17.052;2023-06-14T09:46:26;9.68;;;6.00;;
74309;SDS011;62722;51.142;17.052;2023-06-14T09:48:54;7.05;;;4.93;;
74309;SDS011;62722;51.142;17.052;2023-06-14T09:51:22;8.10;;;5.18;;
74309;SDS011;62722;51.142;17.052;2023-06-14T09:53:50;7.75;;;5.07;;
74309;SDS011;62722;51.142;17.052;2023-06-14T09:56:23;8.35;;;5.13;;
74309;SDS011;62722;51.142;17.052;2023-06-14T09:58:56;6.97;;;4.93;;
74309;SDS011;62722;51.142;17.052;2023-06-14T10:01:25;6.80;;;4.90;;
74309;SDS011;62722;51.142;17.052;2023-06-14T10:03:55;8.13;;;5.13;;
74309;SDS011;62722;51.142;17.052;2023-06-14T10:06:31;7.78;;;5.20;;
74309;SDS011;62722;51.142;17.052;2023-06-14T10:09:02;9.48;;;5.68;;
74309;SDS011;62722;51.142;17.052;2023-06-14T10:11:31;9.65;;;5.70;;
74309;SDS011;62722;51.142;17.052;2023-06-14T10:13:59;7.55;;;5.43;;
74309;SDS011;62722;51.142;17.052;2023-06-14T10:16:28;7.45;;;4.88;;
74309;SDS011;62722;51.142;17.052;2023-06-14T10:19:00;6.90;;;4.55;;
74309;SDS011;62722;51.142;17.052;2023-06-14T10:21:32;6.68;;;4.90;;
74309;SDS011;62722;51.142;17.052;2023-06-14T10:24:06;6.55;;;4.78;;
74309;SDS011;62722;51.142;17.052;2023-06-14T10:26:40;5.75;;;4.40;;
74309;SDS011;62722;51.142;17.052;2023-06-14T10:29:17;7.10;;;4.45;;
74309;SDS011;62722;51.142;17.052;2023-06-14T10:31:45;8.02;;;4.40;;
74309;SDS011;62722;51.142;17.052;2023-06-14T10:34:20;5.03;;;4.03;;
74309;SDS011;62722;51.142;17.052;2023-06-14T10:37:03;5.53;;;3.95;;
74309;SDS011;62722;51.142;17.052;2023-06-14T10:39:39;7.03;;;4.50;;
74309;SDS011;62722;51.142;17.052;2023-06-14T10:42:08;5.72;;;3.95;;
74309;SDS011;62722;51.142;17.052;2023-06-14T10:44:42;6.72;;;3.95;;
74309;SDS011;62722;51.142;17.052;2023-06-14T10:47:20;5.90;;;4.18;;
74309;SDS011;62722;51.142;17.052;2023-06-14T10:49:50;5.85;;;4.20;;
74309;SDS011;62722;51.142;17.052;2023-06-14T10:52:23;6.95;;;4.43;;
74309;SDS011;62722;51.142;17.052;2023-06-14T10:55:00;6.32;;;4.18;;
74309;SDS011;62722;51.142;17.052;2023-06-14T10:57:30;6.28;;;4.10;;
74309;SDS011;62722;51.142;17.052;2023-06-14T10:59:58;6.03;;;4.43;;
74309;SDS011;62722;51.142;17.052;2023-06-14T11:05:42;7.63;;;4.53;;
74309;SDS011;62722;51.142;17.052;2023-06-14T11:11:13;7.55;;;3.83;;
74309;SDS011;62722;51.142;17.052;2023-06-14T11:13:42;6.18;;;4.00;;
74309;SDS011;62722;51.142;17.052;2023-06-14T11:16:12;5.82;;;3.63;;
74309;SDS011;62722;51.142;17.052;2023-06-14T11:18:42;5.82;;;3.08;;
74309;SDS011;62722;51.142;17.052;2023-06-14T11:21:15;5.25;;;3.55;;
74309;SDS011;62722;51.142;17.052;2023-06-14T11:23:48;7.25;;;3.85;;
74309;SDS011;62722;51.142;17.052;2023-06-14T11:26:25;5.72;;;3.80;;
74309;SDS011;62722;51.142;17.052;2023-06-14T11:28:57;5.72;;;3.83;;
74309;SDS011;62722;51.142;17.052;2023-06-14T11:31:25;6.68;;;3.50;;
74309;SDS011;62722;51.142;17.052;2023-06-14T11:33:54;5.93;;;3.38;;
74309;SDS011;62722;51.142;17.052;2023-06-14T11:36:22;6.32;;;3.58;;
74309;SDS011;62722;51.142;17.052;2023-06-14T11:38:57;5.32;;;3.53;;
74309;SDS011;62722;51.142;17.052;2023-06-14T11:41:31;7.15;;;3.60;;
74309;SDS011;62722;51.142;17.052;2023-06-14T11:44:00;5.78;;;3.40;;
74309;SDS011;62722;51.142;17.052;2023-06-14T11:46:28;7.20;;;2.97;;
74309;SDS011;62722;51.142;17.052;2023-06-14T11:48:55;5.97;;;3.63;;
74309;SDS011;62722;51.142;17.052;2023-06-14T11:51:23;6.97;;;3.45;;
74309;SDS011;62722;51.142;17.052;2023-06-14T11:53:51;5.40;;;3.60;;
74309;SDS011;62722;51.142;17.052;2023-06-14T11:56:18;5.22;;;3.83;;
74309;SDS011;62722;51.142;17.052;2023-06-14T11:59:01;6.30;;;3.58;;
74309;SDS011;62722;51.142;17.052;2023-06-14T12:01:47;5.85;;;3.33;;
74309;SDS011;62722;51.142;17.052;2023-06-14T12:04:22;5.32;;;3.63;;
74309;SDS011;62722;51.142;17.052;2023-06-14T12:06:51;6.30;;;3.40;;
74309;SDS011;62722;51.142;17.052;2023-06-14T12:09:21;10.40;;;3.95;;
74309;SDS011;62722;51.142;17.052;2023-06-14T12:11:49;5.82;;;4.22;;
74309;SDS011;62722;51.142;17.052;2023-06-14T12:14:18;6.03;;;3.80;;
74309;SDS011;62722;51.142;17.052;2023-06-14T12:16:46;5.65;;;3.67;;
74309;SDS011;62722;51.142;17.052;2023-06-14T12:19:14;6.57;;;3.83;;
74309;SDS011;62722;51.142;17.052;2023-06-14T12:21:42;5.43;;;3.88;;
74309;SDS011;62722;51.142;17.052;2023-06-14T12:24:14;5.45;;;3.45;;
74309;SDS011;62722;51.142;17.052;2023-06-14T12:26:41;8.23;;;4.38;;
74309;SDS011;62722;51.142;17.052;2023-06-14T12:29:09;6.78;;;4.57;;
74309;SDS011;62722;51.142;17.052;2023-06-14T12:31:40;6.85;;;4.78;;
74309;SDS011;62722;51.142;17.052;2023-06-14T12:34:08;5.63;;;4.50;;
74309;SDS011;62722;51.142;17.052;2023-06-14T12:36:35;7.65;;;5.03;;
74309;SDS011;62722;51.142;17.052;2023-06-14T12:39:07;7.38;;;5.55;;
74309;SDS011;62722;51.142;17.052;2023-06-14T12:41:35;6.95;;;5.13;;
74309;SDS011;62722;51.142;17.052;2023-06-14T12:44:03;7.43;;;4.80;;
74309;SDS011;62722;51.142;17.052;2023-06-14T12:46:31;11.13;;;5.20;;
74309;SDS011;62722;51.142;17.052;2023-06-14T12:49:00;7.57;;;4.47;;
74309;SDS011;62722;51.142;17.052;2023-06-14T12:51:27;6.00;;;5.10;;
74309;SDS011;62722;51.142;17.052;2023-06-14T12:53:55;7.32;;;4.90;;
74309;SDS011;62722;51.142;17.052;2023-06-14T12:56:22;7.88;;;4.95;;
74309;SDS011;62722;51.142;17.052;2023-06-14T12:58:50;8.05;;;4.68;;
74309;SDS011;62722;51.142;17.052;2023-06-14T13:01:17;6.47;;;5.03;;
74309;SDS011;62722;51.142;17.052;2023-06-14T13:03:45;7.95;;;4.75;;
74309;SDS011;62722;51.142;17.052;2023-06-14T13:06:14;7.70;;;4.88;;
74309;SDS011;62722;51.142;17.052;2023-06-14T13:08:41;7.80;;;5.18;;
74309;SDS011;62722;51.142;17.052;2023-06-14T13:11:09;9.18;;;5.13;;
74309;SDS011;62722;51.142;17.052;2023-06-14T13:13:36;7.28;;;4.80;;
74309;SDS011;62722;51.142;17.052;2023-06-14T13:16:04;6.80;;;5.20;;
74309;SDS011;62722;51.142;17.052;2023-06-14T13:18:33;6.65;;;4.88;;
74309;SDS011;62722;51.142;17.052;2023-06-14T13:21:07;8.00;;;4.65;;
74309;SDS011;62722;51.142;17.052;2023-06-14T13:23:38;8.40;;;4.78;;
74309;SDS011;62722;51.142;17.052;2023-06-14T13:26:06;6.97;;;5.15;;
74309;SDS011;62722;51.142;17.052;2023-06-14T13:28:33;7.13;;;5.18;;
74309;SDS011;62722;51.142;17.052;2023-06-14T13:31:01;7.65;;;5.05;;
74309;SDS011;62722;51.142;17.052;2023-06-14T13:33:28;8.00;;;5.75;;
74309;SDS011;62722;51.142;17.052;2023-06-14T13:35:56;7.28;;;5.13;;
74309;SDS011;62722;51.142;17.052;2023-06-14T13:38:23;6.65;;;4.28;;
74309;SDS011;62722;51.142;17.052;2023-06-14T13:40:52;9.20;;;5.25;;
74309;SDS011;62722;51.142;17.052;2023-06-14T13:43:19;8.02;;;5.00;;
74309;SDS011;62722;51.142;17.052;2023-06-14T13:45:48;6.40;;;4.45;;
74309;SDS011;62722;51.142;17.052;2023-06-14T13:48:16;7.93;;;4.65;;
74309;SDS011;62722;51.142;17.052;2023-06-14T13:50:43;6.07;;;4.97;;
74309;SDS011;62722;51.142;17.052;2023-06-14T13:53:11;7.53;;;4.50;;
74309;SDS011;62722;51.142;17.052;2023-06-14T13:55:39;6.63;;;4.90;;
74309;SDS011;62722;51.142;17.052;2023-06-14T13:58:08;7.30;;;4.57;;
74309;SDS011;62722;51.142;17.052;2023-06-14T14:00:36;6.15;;;4.65;;
74309;SDS011;62722;51.142;17.052;2023-06-14T14:03:05;6.82;;;4.68;;
74309;SDS011;62722;51.142;17.052;2023-06-14T14:05:34;7.35;;;4.82;;
74309;SDS011;62722;51.142;17.052;2023-06-14T14:08:02;7.97;;;5.05;;
74309;SDS011;62722;51.142;17.052;2023-06-14T14:10:30;5.95;;;3.75;;
74309;SDS011;62722;51.142;17.052;2023-06-14T14:13:00;5.47;;;3.83;;
74309;SDS011;62722;51.142;17.052;2023-06-14T14:15:32;5.15;;;3.42;;
74309;SDS011;62722;51.142;17.052;2023-06-14T14:18:00;6.75;;;3.50;;
74309;SDS011;62722;51.142;17.052;2023-06-14T14:20:29;6.00;;;3.28;;
74309;SDS011;62722;51.142;17.052;2023-06-14T14:22:57;6.72;;;3.38;;
74309;SDS011;62722;51.142;17.052;2023-06-14T14:25:25;4.90;;;3.17;;
74309;SDS011;62722;51.142;17.052;2023-06-14T14:28:00;5.45;;;3.22;;
74309;SDS011;62722;51.142;17.052;2023-06-14T14:30:30;5.57;;;3.35;;
74309;SDS011;62722;51.142;17.052;2023-06-14T14:33:00;4.85;;;3.20;;
74309;SDS011;62722;51.142;17.052;2023-06-14T14:35:27;4.53;;;3.17;;
74309;SDS011;62722;51.142;17.052;2023-06-14T14:37:55;4.53;;;3.55;;
74309;SDS011;62722;51.142;17.052;2023-06-14T14:40:24;5.63;;;3.30;;
74309;SDS011;62722;51.142;17.052;2023-06-14T14:42:51;4.43;;;3.40;;
74309;SDS011;62722;51.142;17.052;2023-06-14T14:45:19;6.00;;;3.58;;
74309;SDS011;62722;51.142;17.052;2023-06-14T14:47:48;7.60;;;4.25;;
74309;SDS011;62722;51.142;17.052;2023-06-14T14:50:16;5.85;;;3.60;;